Time;durP1;ratioP1;P1;durP2;ratioP2;P2;SDS_P1;SDS_P2;PMS_P1;PMS_P2;Temp;Humidity;BMP_temperature;BMP_pressure;BME280_temperature;BME280_humidity;BME280_pressure;Samples;Min_cycle;Max_cycle;Signal;HPM_P1;HPM_P2
2022/08/10 00:00:21;;;;;;;;;;;16.50;99.90;;;;;;5134634;27;19923;-77
2022/08/10 00:02:51;;;;;;;;;;;16.50;99.90;;;;;;5134343;27;19968;-79
2022/08/10 00:05:16;;;;;;;;;;;16.50;99.90;;;;;;5134508;27;19924;-77
2022/08/10 00:07:42;;;;;;;;;;;16.50;99.90;;;;;;5116445;28;19933;-76
2022/08/10 00:10:08;;;;;;;;;;;16.10;99.90;;;;;;5134377;28;19924;-75
2022/08/10 00:12:33;;;;;;;;;;;16.40;99.90;;;;;;5134438;28;19968;-74
2022/08/10 00:14:59;;;;;;;;;;;16.40;99.90;;;;;;5134497;28;19931;-75
2022/08/10 00:17:25;;;;;;;;;;;16.40;99.90;;;;;;5134439;28;19923;-74
2022/08/10 00:19:50;;;;;;;;;;;16.40;99.90;;;;;;5134451;28;20297;-76
2022/08/10 00:22:16;;;;;;;;;;;16.30;99.90;;;;;;5134321;28;19923;-75
2022/08/10 00:24:41;;;;;;;;;;;16.10;99.90;;;;;;5134292;28;20367;-75
2022/08/10 00:27:07;;;;;;;;;;;16.00;99.90;;;;;;5134508;28;20297;-75
2022/08/10 00:29:33;;;;;;;;;;;15.90;99.90;;;;;;5116315;28;19923;-75
2022/08/10 00:31:58;;;;;;;;;;;15.80;99.90;;;;;;5134400;28;19931;-75
2022/08/10 00:34:24;;;;;;;;;;;15.80;99.90;;;;;;5134191;28;19930;-77
2022/08/10 00:36:49;;;;;;;;;;;15.70;99.90;;;;;;5134083;28;20465;-75
2022/08/10 00:39:15;;;;;;;;;;;15.70;99.90;;;;;;5134046;28;20072;-75
2022/08/10 00:41:40;;;;;;;;;;;15.70;99.90;;;;;;5134245;28;19954;-75
2022/08/10 00:44:06;;;;;;;;;;;15.60;99.90;;;;;;5134612;28;19923;-74
2022/08/10 00:46:32;;;;;;;;;;;15.60;99.90;;;;;;5134345;28;19996;-74
2022/08/10 00:48:57;;;;;;;;;;;15.50;99.90;;;;;;5134496;28;19923;-75
2022/08/10 00:51:23;;;;;;;;;;;15.50;99.90;;;;;;5134400;28;20432;-77
2022/08/10 00:53:49;;;;;;;;;;;15.50;99.90;;;;;;5115906;28;19930;-78
2022/08/10 00:56:14;;;;;;;;;;;15.50;99.90;;;;;;5134745;27;20018;-76
2022/08/10 00:58:40;;;;;;;;;;;15.40;99.90;;;;;;5138440;27;20023;-74
2022/08/10 01:01:06;;;;;;;;;;;15.60;99.90;;;;;;5138271;27;19923;-77
2022/08/10 01:03:31;;;;;;;;;;;15.30;99.90;;;;;;5138252;27;20353;-78
2022/08/10 01:06:12;;;;;;;;;;;15.20;99.90;;;;;;5138145;27;19923;-75
2022/08/10 01:08:53;;;;;;;;;;;15.20;99.90;;;;;;5138020;27;19931;-74
2022/08/10 01:11:25;;;;;;;;;;;15.20;99.90;;;;;;5138194;27;19923;-74
2022/08/10 01:14:17;;;;;;;;;;;15.10;99.90;;;;;;5119204;27;19923;-76
2022/08/10 01:17:01;;;;;;;;;;;15.00;99.90;;;;;;5077888;28;20126;-75
2022/08/10 01:19:48;;;;;;;;;;;15.00;99.90;;;;;;5094637;28;20019;-75
2022/08/10 01:22:31;;;;;;;;;;;15.00;99.90;;;;;;5094495;28;19947;-75
2022/08/10 01:25:15;;;;;;;;;;;15.00;99.90;;;;;;5077816;28;19931;-75
2022/08/10 01:27:59;;;;;;;;;;;15.00;99.90;;;;;;5094492;28;19932;-77
2022/08/10 01:30:26;;;;;;;;;;;15.00;99.90;;;;;;5094560;28;19928;-74
2022/08/10 01:33:09;;;;;;;;;;;14.90;99.90;;;;;;5094436;28;20470;-76
2022/08/10 01:35:40;;;;;;;;;;;14.90;99.90;;;;;;5094137;28;19924;-75
2022/08/10 01:38:08;;;;;;;;;;;14.80;99.90;;;;;;5094230;28;19924;-75
2022/08/10 01:40:36;;;;;;;;;;;14.70;99.90;;;;;;5094097;28;19924;-76
2022/08/10 01:43:03;;;;;;;;;;;14.70;99.90;;;;;;5094168;28;19931;-75
2022/08/10 01:45:29;;;;;;;;;;;14.70;99.90;;;;;;5094240;28;19950;-78
2022/08/10 01:50:45;;;;;;;;;;;14.60;99.90;;;;;;5094028;28;19977;-78
2022/08/10 01:53:14;;;;;;;;;;;14.60;99.90;;;;;;5089189;28;20374;-75
2022/08/10 01:55:40;;;;;;;;;;;14.70;99.90;;;;;;5116708;28;19931;-75
2022/08/10 01:58:08;;;;;;;;;;;14.60;99.90;;;;;;5116704;28;20398;-75
2022/08/10 02:00:35;;;;;;;;;;;14.60;99.90;;;;;;5116546;28;20022;-74
2022/08/10 02:03:03;;;;;;;;;;;14.50;99.90;;;;;;5115424;28;19931;-76
2022/08/10 02:05:30;;;;;;;;;;;14.50;99.90;;;;;;5116316;28;19924;-75
2022/08/10 02:07:56;;;;;;;;;;;14.50;99.90;;;;;;5116500;28;19962;-75
2022/08/10 02:10:22;;;;;;;;;;;14.50;99.90;;;;;;5116418;28;19924;-77
2022/08/10 02:12:48;;;;;;;;;;;14.50;99.90;;;;;;5116547;28;20344;-75
2022/08/10 02:15:17;;;;;;;;;;;14.50;99.90;;;;;;5116341;28;20029;-78
2022/08/10 02:17:44;;;;;;;;;;;14.50;99.90;;;;;;5116314;28;19931;-76
2022/08/10 02:20:14;;;;;;;;;;;14.50;99.90;;;;;;5115135;28;19974;-77
2022/08/10 02:22:42;;;;;;;;;;;14.60;99.90;;;;;;5116020;28;20267;-78
2022/08/10 02:25:08;;;;;;;;;;;14.60;99.90;;;;;;5114964;28;19976;-77
2022/08/10 02:27:34;;;;;;;;;;;14.60;99.90;;;;;;5116079;28;19924;-74
2022/08/10 02:30:00;;;;;;;;;;;14.60;99.90;;;;;;5116028;28;19931;-78
2022/08/10 02:32:26;;;;;;;;;;;14.50;99.90;;;;;;5115822;28;19924;-74
2022/08/10 02:34:53;;;;;;;;;;;14.50;99.90;;;;;;5123160;27;19928;-74
2022/08/10 02:37:22;;;;;;;;;;;14.50;99.90;;;;;;5136490;27;19923;-75
2022/08/10 02:39:47;;;;;;;;;;;14.50;99.90;;;;;;5136282;27;20006;-75
2022/08/10 02:42:18;;;;;;;;;;;14.50;99.90;;;;;;5136207;27;20010;-74
2022/08/10 02:44:58;;;;;;;;;;;14.50;99.90;;;;;;5136080;27;20335;-75
2022/08/10 02:47:27;;;;;;;;;;;14.60;99.90;;;;;;5136059;27;19930;-75
2022/08/10 02:50:11;;;;;;;;;;;14.50;99.90;;;;;;5135988;27;19939;-75
2022/08/10 02:52:43;;;;;;;;;;;14.60;99.90;;;;;;5136116;27;20400;-74
2022/08/10 02:55:24;;;;;;;;;;;14.70;99.90;;;;;;5135875;27;20342;-76
2022/08/10 02:57:51;;;;;;;;;;;14.70;99.90;;;;;;5117641;27;19946;-75
2022/08/10 03:00:17;;;;;;;;;;;14.60;99.90;;;;;;5135682;27;19928;-75
2022/08/10 03:02:48;;;;;;;;;;;14.60;99.90;;;;;;5117624;27;19987;-75
2022/08/10 03:05:15;;;;;;;;;;;14.60;99.90;;;;;;5135884;27;19930;-74
2022/08/10 03:07:47;;;;;;;;;;;14.60;99.90;;;;;;5135636;27;20385;-75
2022/08/10 03:10:16;;;;;;;;;;;14.70;99.90;;;;;;5135626;27;19927;-74
2022/08/10 03:12:42;;;;;;;;;;;14.70;99.90;;;;;;5135597;27;19924;-76
2022/08/10 03:15:10;;;;;;;;;;;14.70;99.90;;;;;;5135810;27;19927;-76
2022/08/10 03:17:36;;;;;;;;;;;14.70;99.90;;;;;;5135410;27;19931;-74
2022/08/10 03:20:01;;;;;;;;;;;14.70;99.90;;;;;;5135611;27;20007;-74
2022/08/10 03:22:27;;;;;;;;;;;14.70;99.90;;;;;;5135413;27;19977;-75
2022/08/10 03:24:53;;;;;;;;;;;14.70;99.90;;;;;;5135326;27;19923;-77
2022/08/10 03:27:19;;;;;;;;;;;14.70;99.90;;;;;;5117240;27;19923;-75
2022/08/10 03:29:45;;;;;;;;;;;14.60;99.90;;;;;;5135353;27;19975;-77
2022/08/10 03:32:12;;;;;;;;;;;14.50;99.90;;;;;;5135450;27;19924;-75
2022/08/10 03:34:38;;;;;;;;;;;14.60;99.90;;;;;;5135169;27;19927;-77
2022/08/10 03:37:03;;;;;;;;;;;14.50;99.90;;;;;;5117185;27;19924;-78
2022/08/10 03:39:29;;;;;;;;;;;14.40;99.90;;;;;;5135156;27;20018;-75
2022/08/10 03:41:57;;;;;;;;;;;14.80;99.90;;;;;;5135040;27;20307;-78
2022/08/10 03:44:28;;;;;;;;;;;14.40;99.90;;;;;;5134996;27;20335;-74
2022/08/10 03:46:54;;;;;;;;;;;14.30;99.90;;;;;;5135215;27;19923;-75
2022/08/10 03:49:20;;;;;;;;;;;14.30;99.90;;;;;;5135231;27;19924;-74
2022/08/10 03:51:48;;;;;;;;;;;14.30;99.90;;;;;;5135027;27;19923;-78
2022/08/10 03:54:14;;;;;;;;;;;14.30;99.90;;;;;;5134889;27;19975;-78
2022/08/10 03:56:40;;;;;;;;;;;14.30;99.90;;;;;;5116833;27;19931;-74
2022/08/10 03:59:07;;;;;;;;;;;14.20;99.90;;;;;;5134760;27;19924;-74
2022/08/10 04:01:32;;;;;;;;;;;14.10;99.90;;;;;;5116676;28;19980;-75
2022/08/10 04:03:58;;;;;;;;;;;14.00;99.90;;;;;;5134898;27;19924;-77
2022/08/10 04:06:24;;;;;;;;;;;14.60;99.90;;;;;;5134953;27;19924;-75
2022/08/10 04:08:49;;;;;;;;;;;14.00;99.90;;;;;;5134725;27;20014;-75
2022/08/10 04:11:15;;;;;;;;;;;14.00;99.90;;;;;;5134683;28;19934;-75
2022/08/10 04:13:40;;;;;;;;;;;14.00;99.90;;;;;;5134882;28;19930;-74
2022/08/10 04:16:06;;;;;;;;;;;14.00;99.90;;;;;;5116765;28;19930;-77
2022/08/10 04:18:32;;;;;;;;;;;14.00;99.90;;;;;;5134801;28;19930;-74
2022/08/10 04:21:00;;;;;;;;;;;14.00;99.90;;;;;;5134710;28;19952;-74
2022/08/10 04:23:29;;;;;;;;;;;14.00;99.90;;;;;;5134601;28;19949;-75
2022/08/10 04:25:55;;;;;;;;;;;14.00;99.90;;;;;;5134506;28;20393;-75
2022/08/10 04:28:20;;;;;;;;;;;14.00;99.90;;;;;;5116434;28;20021;-76
2022/08/10 04:30:46;;;;;;;;;;;14.00;99.90;;;;;;5134711;27;19929;-78
2022/08/10 04:33:13;;;;;;;;;;;13.80;99.90;;;;;;5138637;27;19927;-74
2022/08/10 04:35:39;;;;;;;;;;;14.00;99.90;;;;;;5154992;27;19923;-76
2022/08/10 04:38:05;;;;;;;;;;;14.00;99.90;;;;;;5138643;27;20019;-74
2022/08/10 04:40:31;;;;;;;;;;;13.90;99.90;;;;;;5138393;27;19923;-74
2022/08/10 04:42:58;;;;;;;;;;;13.90;99.90;;;;;;5138595;27;19976;-75
2022/08/10 04:45:23;;;;;;;;;;;13.90;99.90;;;;;;5138785;27;19968;-75
2022/08/10 04:47:49;;;;;;;;;;;13.90;99.90;;;;;;5138608;27;19927;-75
2022/08/10 04:50:14;;;;;;;;;;;13.80;99.90;;;;;;5138513;27;19959;-74
2022/08/10 04:52:40;;;;;;;;;;;13.80;99.90;;;;;;5120161;27;19923;-77
2022/08/10 04:55:06;;;;;;;;;;;13.80;99.90;;;;;;5138339;27;20018;-77
2022/08/10 04:57:32;;;;;;;;;;;13.80;99.90;;;;;;5138332;27;20017;-75
2022/08/10 04:59:58;;;;;;;;;;;14.30;99.90;;;;;;5154462;27;19923;-74
2022/08/10 05:02:23;;;;;;;;;;;13.90;99.90;;;;;;5138246;27;19930;-75
2022/08/10 05:04:49;;;;;;;;;;;13.90;99.90;;;;;;5119816;27;20019;-76
2022/08/10 05:07:14;;;;;;;;;;;13.90;99.90;;;;;;5138206;27;19927;-74
2022/08/10 05:09:40;;;;;;;;;;;14.00;99.90;;;;;;5119752;27;19923;-77
2022/08/10 05:12:07;;;;;;;;;;;14.00;99.90;;;;;;5137927;27;19927;-72
2022/08/10 05:14:32;;;;;;;;;;;14.00;99.90;;;;;;5137855;27;19934;-76
2022/08/10 05:16:58;;;;;;;;;;;14.00;99.90;;;;;;5138075;27;19935;-78
2022/08/10 05:19:25;;;;;;;;;;;13.90;99.90;;;;;;5119927;27;19923;-74
2022/08/10 05:21:50;;;;;;;;;;;14.10;99.90;;;;;;5137883;27;19968;-75
2022/08/10 05:24:16;;;;;;;;;;;14.10;99.90;;;;;;5119101;27;19927;-74
2022/08/10 05:26:41;;;;;;;;;;;14.20;99.90;;;;;;5137727;27;20430;-73
2022/08/10 05:29:07;;;;;;;;;;;14.20;99.90;;;;;;5137654;27;19986;-74
2022/08/10 05:31:32;;;;;;;;;;;14.30;99.90;;;;;;5137608;27;19935;-75
2022/08/10 05:33:58;;;;;;;;;;;14.40;99.90;;;;;;5137585;27;19923;-74
2022/08/10 05:36:24;;;;;;;;;;;14.50;99.90;;;;;;5117142;28;19979;-74
2022/08/10 05:38:50;;;;;;;;;;;14.60;99.90;;;;;;5116025;28;19976;-73
2022/08/10 05:41:16;;;;;;;;;;;14.70;99.90;;;;;;5115772;28;20012;-74
2022/08/10 05:43:42;;;;;;;;;;;14.90;99.90;;;;;;5116756;28;19930;-74
2022/08/10 05:46:07;;;;;;;;;;;14.90;99.90;;;;;;5116842;28;19928;-74
2022/08/10 05:48:36;;;;;;;;;;;15.10;99.90;;;;;;5116999;28;19923;-74
2022/08/10 05:51:02;;;;;;;;;;;15.20;99.90;;;;;;5116844;28;19930;-74
2022/08/10 05:53:27;;;;;;;;;;;15.20;99.90;;;;;;5115813;28;19924;-76
2022/08/10 05:55:53;;;;;;;;;;;15.40;99.90;;;;;;5116653;28;19973;-75
2022/08/10 05:58:18;;;;;;;;;;;15.40;99.90;;;;;;5115732;28;19924;-74
2022/08/10 06:00:46;;;;;;;;;;;15.50;99.90;;;;;;5116339;28;19924;-74
2022/08/10 06:03:13;;;;;;;;;;;15.60;99.90;;;;;;5116676;28;20293;-74
2022/08/10 06:05:40;;;;;;;;;;;15.70;99.90;;;;;;5115726;28;19924;-73
2022/08/10 06:08:14;;;;;;;;;;;15.80;99.90;;;;;;5115586;28;19924;-75
2022/08/10 06:10:40;;;;;;;;;;;15.90;99.90;;;;;;5116338;28;19924;-74
2022/08/10 06:15:51;;;;;;;;;;;16.00;99.90;;;;;;5116387;28;19930;-75
2022/08/10 06:18:17;;;;;;;;;;;16.20;99.90;;;;;;5098438;28;19928;-74
2022/08/10 06:20:44;;;;;;;;;;;16.20;99.90;;;;;;5116202;28;19927;-74
2022/08/10 06:23:10;;;;;;;;;;;16.20;99.90;;;;;;5116165;28;19923;-74
2022/08/10 06:25:35;;;;;;;;;;;16.30;99.90;;;;;;5116026;28;19923;-74
2022/08/10 06:28:02;;;;;;;;;;;16.40;99.90;;;;;;5115849;28;19946;-74
2022/08/10 06:30:28;;;;;;;;;;;16.40;99.90;;;;;;5116130;28;19924;-73
2022/08/10 06:32:55;;;;;;;;;;;16.50;99.90;;;;;;5114564;28;19923;-78
2022/08/10 06:35:22;;;;;;;;;;;16.50;99.90;;;;;;5133463;27;19923;-77
2022/08/10 06:37:48;;;;;;;;;;;16.60;99.90;;;;;;5157233;27;19926;-76
2022/08/10 06:40:14;;;;;;;;;;;16.70;99.90;;;;;;5156569;27;20010;-74
2022/08/10 06:42:45;;;;;;;;;;;16.70;99.90;;;;;;5172157;27;20018;-73
2022/08/10 06:45:12;;;;;;;;;;;16.70;99.90;;;;;;5177919;27;19952;-75
2022/08/10 06:47:43;;;;;;;;;;;16.90;99.90;;;;;;5177852;27;19923;-75
2022/08/10 06:50:20;;;;;;;;;;;16.90;99.90;;;;;;5159393;27;20206;-74
2022/08/10 06:52:47;;;;;;;;;;;17.00;99.90;;;;;;5159232;27;20011;-75
2022/08/10 06:55:13;;;;;;;;;;;17.10;99.90;;;;;;5193087;27;20006;-74
2022/08/10 06:57:40;;;;;;;;;;;17.10;99.90;;;;;;5177379;27;20329;-74
2022/08/10 07:00:06;;;;;;;;;;;17.20;99.90;;;;;;5159289;27;19932;-72
2022/08/10 07:02:40;;;;;;;;;;;17.30;99.90;;;;;;5158691;27;19982;-74
2022/08/10 07:05:07;;;;;;;;;;;17.40;99.90;;;;;;5177414;27;20287;-74
2022/08/10 07:07:35;;;;;;;;;;;17.50;99.90;;;;;;5193679;27;19926;-73
2022/08/10 07:10:01;;;;;;;;;;;17.60;99.90;;;;;;5177036;27;19923;-73
2022/08/10 07:12:27;;;;;;;;;;;17.60;99.90;;;;;;5177200;27;19934;-74
2022/08/10 07:14:53;;;;;;;;;;;17.70;99.90;;;;;;5158947;27;20020;-76
2022/08/10 07:17:20;;;;;;;;;;;17.80;99.90;;;;;;5177267;27;20018;-76
2022/08/10 07:19:47;;;;;;;;;;;17.80;99.90;;;;;;5166996;27;20373;-76
2022/08/10 07:22:14;;;;;;;;;;;17.90;99.90;;;;;;5150835;27;19931;-77
2022/08/10 07:24:40;;;;;;;;;;;17.90;99.90;;;;;;5148281;27;19923;-74
2022/08/10 07:27:07;;;;;;;;;;;18.10;99.90;;;;;;5142583;27;19923;-74
2022/08/10 07:29:34;;;;;;;;;;;18.10;99.90;;;;;;5161407;27;19927;-74
2022/08/10 07:32:00;;;;;;;;;;;18.20;99.90;;;;;;5120480;27;19923;-74
2022/08/10 07:34:26;;;;;;;;;;;18.20;99.90;;;;;;5135023;27;20301;-74
2022/08/10 07:36:55;;;;;;;;;;;18.30;99.90;;;;;;5117133;27;20410;-74
2022/08/10 07:39:21;;;;;;;;;;;18.40;99.90;;;;;;5134945;27;19924;-76
2022/08/10 07:41:48;;;;;;;;;;;18.40;99.90;;;;;;5135181;27;19928;-74
2022/08/10 07:44:15;;;;;;;;;;;18.50;99.90;;;;;;5134936;27;20013;-73
2022/08/10 07:46:43;;;;;;;;;;;18.60;99.90;;;;;;5134212;27;19924;-76
2022/08/10 07:49:13;;;;;;;;;;;18.60;99.90;;;;;;5135175;27;20018;-78
2022/08/10 07:51:40;;;;;;;;;;;18.70;99.90;;;;;;5135072;27;19930;-75
2022/08/10 07:54:07;;;;;;;;;;;18.80;99.90;;;;;;5134736;27;19924;-76
2022/08/10 07:56:34;;;;;;;;;;;18.80;99.90;;;;;;5135100;27;19946;-74
2022/08/10 07:59:10;;;;;;;;;;;18.80;99.90;;;;;;5134966;27;19924;-78
2022/08/10 08:01:39;;;;;;;;;;;18.80;99.90;;;;;;5134699;27;19934;-74
2022/08/10 08:04:06;;;;;;;;;;;19.00;99.90;;;;;;5135309;27;20024;-75
2022/08/10 08:06:32;;;;;;;;;;;19.00;99.90;;;;;;5146368;27;19923;-74
2022/08/10 08:08:59;;;;;;;;;;;19.10;99.90;;;;;;5155283;27;20013;-75
2022/08/10 08:11:26;;;;;;;;;;;19.10;99.90;;;;;;5155226;27;20293;-74
2022/08/10 08:13:52;;;;;;;;;;;19.20;99.90;;;;;;5155563;27;19927;-75
2022/08/10 08:16:18;;;;;;;;;;;19.30;99.90;;;;;;5137303;27;20385;-76
2022/08/10 08:18:45;;;;;;;;;;;19.30;99.90;;;;;;5155360;27;19922;-74
2022/08/10 08:21:10;;;;;;;;;;;19.40;99.90;;;;;;5136751;27;19923;-75
2022/08/10 08:23:37;;;;;;;;;;;19.50;99.90;;;;;;5155217;27;19968;-77
2022/08/10 08:26:03;;;;;;;;;;;19.60;99.90;;;;;;5155339;27;19976;-75
2022/08/10 08:28:31;;;;;;;;;;;19.60;99.90;;;;;;5155421;27;19923;-74
2022/08/10 08:30:57;;;;;;;;;;;19.70;99.90;;;;;;5137032;27;19923;-74
2022/08/10 08:33:23;;;;;;;;;;;19.80;99.90;;;;;;5155197;27;19934;-74
2022/08/10 08:35:49;;;;;;;;;;;19.80;99.90;;;;;;5136676;27;19923;-79
2022/08/10 08:38:15;;;;;;;;;;;19.90;99.90;;;;;;5120084;27;19947;-78
2022/08/10 08:40:43;;;;;;;;;;;20.00;99.90;;;;;;5134251;28;20362;-74
2022/08/10 08:43:23;;;;;;;;;;;20.00;99.90;;;;;;5099270;28;20018;-77
2022/08/10 08:45:55;;;;;;;;;;;20.10;99.90;;;;;;5134478;28;19923;-75
2022/08/10 08:48:39;;;;;;;;;;;20.10;99.90;;;;;;5134418;28;20019;-78
2022/08/10 08:51:11;;;;;;;;;;;20.20;99.90;;;;;;5116361;28;19966;-76
2022/08/10 08:53:46;;;;;;;;;;;20.30;99.90;;;;;;5134476;28;19923;-78
2022/08/10 08:56:23;;;;;;;;;;;20.40;99.90;;;;;;5134347;28;20340;-75
2022/08/10 08:58:49;;;;;;;;;;;20.40;99.90;;;;;;5116226;28;19945;-76
2022/08/10 09:01:33;;;;;;;;;;;20.50;99.90;;;;;;5133866;28;20370;-75
2022/08/10 09:04:17;;;;;;;;;;;20.60;99.90;;;;;;5134321;28;19927;-76
2022/08/10 09:07:05;;;;;;;;;;;20.70;99.90;;;;;;5116130;28;20442;-76
2022/08/10 09:09:31;;;;;;;;;;;20.80;99.90;;;;;;5116021;28;20016;-78
2022/08/10 09:12:16;;;;;;;;;;;20.80;99.90;;;;;;5133973;28;19982;-75
2022/08/10 09:14:51;;;;;;;;;;;20.90;99.90;;;;;;5116256;28;19924;-75
2022/08/10 09:17:43;;;;;;;;;;;21.00;99.90;;;;;;5134740;27;19924;-76
2022/08/10 09:20:13;;;;;;;;;;;21.20;99.90;;;;;;5113528;27;19930;-76
2022/08/10 09:22:42;;;;;;;;;;;21.20;99.90;;;;;;5137959;27;19928;-75
2022/08/10 09:25:12;;;;;;;;;;;21.30;99.90;;;;;;5137771;27;19923;-75
2022/08/10 09:27:40;;;;;;;;;;;21.40;99.90;;;;;;5119460;27;20383;-76
2022/08/10 09:30:06;;;;;;;;;;;21.50;99.90;;;;;;5137718;27;19927;-77
2022/08/10 09:32:40;;;;;;;;;;;21.60;99.90;;;;;;5137525;27;19962;-75
2022/08/10 09:35:06;;;;;;;;;;;21.60;99.90;;;;;;5144015;27;20436;-78
2022/08/10 09:37:34;;;;;;;;;;;21.70;99.90;;;;;;5133027;27;19928;-75
2022/08/10 09:40:09;;;;;;;;;;;21.80;99.90;;;;;;5116979;28;19993;-74
2022/08/10 09:42:53;;;;;;;;;;;21.90;99.90;;;;;;5116940;28;19924;-75
2022/08/10 09:45:22;;;;;;;;;;;22.00;99.90;;;;;;5116804;28;19930;-75
2022/08/10 09:48:06;;;;;;;;;;;22.00;99.90;;;;;;5116634;28;19931;-75
2022/08/10 09:50:39;;;;;;;;;;;22.20;99.90;;;;;;5116827;28;20015;-76
2022/08/10 09:53:07;;;;;;;;;;;22.20;99.90;;;;;;5116700;28;20416;-77
2022/08/10 09:55:51;;;;;;;;;;;21.70;99.90;;;;;;5116639;28;19935;-77
2022/08/10 09:58:25;;;;;;;;;;;22.30;99.90;;;;;;5116543;28;19935;-75
2022/08/10 10:01:10;;;;;;;;;;;22.40;99.90;;;;;;5116507;28;20399;-75
2022/08/10 10:03:41;;;;;;;;;;;22.50;99.90;;;;;;5132444;27;19973;-75
2022/08/10 10:06:20;;;;;;;;;;;22.60;99.90;;;;;;5116480;28;20333;-77
2022/08/10 10:08:55;;;;;;;;;;;22.70;99.90;;;;;;5116566;28;19970;-75
2022/08/10 10:11:41;;;;;;;;;;;22.80;99.90;;;;;;5132284;27;19923;-76
2022/08/10 10:14:14;;;;;;;;;;;22.90;99.90;;;;;;5097966;28;20367;-75
2022/08/10 10:16:55;;;;;;;;;;;23.00;99.90;;;;;;5116222;28;19924;-76
2022/08/10 10:19:39;;;;;;;;;;;23.10;99.90;;;;;;5116396;28;19924;-75
2022/08/10 10:22:25;;;;;;;;;;;23.10;99.90;;;;;;5114898;28;20319;-74
2022/08/10 10:24:56;;;;;;;;;;;23.10;99.90;;;;;;5115987;28;19976;-78
2022/08/10 10:27:35;;;;;;;;;;;23.20;99.90;;;;;;5115978;28;19946;-76
2022/08/10 10:30:11;;;;;;;;;;;23.20;99.90;;;;;;5114868;28;19924;-75
2022/08/10 10:32:36;;;;;;;;;;;23.30;99.90;;;;;;5128982;27;19927;-75
2022/08/10 10:35:10;;;;;;;;;;;23.40;99.90;;;;;;5144481;27;19929;-75
2022/08/10 10:37:36;;;;;;;;;;;23.40;99.90;;;;;;5146770;27;19930;-77
2022/08/10 10:40:02;;;;;;;;;;;23.30;99.90;;;;;;5143392;27;19923;-77
2022/08/10 10:42:42;;;;;;;;;;;23.50;99.90;;;;;;5127189;27;19923;-75
2022/08/10 10:45:17;;;;;;;;;;;23.50;99.90;;;;;;5145483;27;19949;-76
2022/08/10 10:47:51;;;;;;;;;;;23.60;99.90;;;;;;5144797;27;19970;-75
2022/08/10 10:50:21;;;;;;;;;;;23.70;99.90;;;;;;5145061;27;19930;-75
2022/08/10 10:52:57;;;;;;;;;;;23.20;99.90;;;;;;5117885;27;19973;-75
2022/08/10 10:55:22;;;;;;;;;;;23.70;99.90;;;;;;5118025;27;20362;-75
2022/08/10 10:57:55;;;;;;;;;;;23.70;99.90;;;;;;5136055;27;19924;-76
2022/08/10 11:00:24;;;;;;;;;;;23.70;99.90;;;;;;5100860;27;19970;-75
2022/08/10 11:02:59;;;;;;;;;;;23.70;99.90;;;;;;5117194;27;20014;-77
2022/08/10 11:05:40;;;;;;;;;;;23.70;99.90;;;;;;5135787;27;20010;-77
2022/08/10 11:08:11;;;;;;;;;;;23.70;99.90;;;;;;5117527;27;19923;-76
2022/08/10 11:10:44;;;;;;;;;;;23.80;99.90;;;;;;5117690;27;19923;-74
2022/08/10 11:13:28;;;;;;;;;;;23.90;99.90;;;;;;5135851;27;19931;-78
2022/08/10 11:16:04;;;;;;;;;;;23.90;99.90;;;;;;5134229;27;20353;-78
2022/08/10 11:18:32;;;;;;;;;;;23.90;99.90;;;;;;5135284;27;20074;-76
2022/08/10 11:21:04;;;;;;;;;;;23.90;99.90;;;;;;5135528;27;19924;-76
2022/08/10 11:23:41;;;;;;;;;;;23.90;99.90;;;;;;5135284;27;19930;-76
2022/08/10 11:26:33;;;;;;;;;;;23.90;99.90;;;;;;5135234;27;19974;-78
2022/08/10 11:29:12;;;;;;;;;;;23.90;99.90;;;;;;5111121;27;20293;-77
2022/08/10 11:31:53;;;;;;;;;;;23.90;99.90;;;;;;5135345;27;20028;-79
2022/08/10 11:34:24;;;;;;;;;;;23.90;99.90;;;;;;5135005;27;19976;-78
2022/08/10 11:37:04;;;;;;;;;;;24.00;99.90;;;;;;5135111;27;19924;-77
2022/08/10 11:39:29;;;;;;;;;;;24.00;99.90;;;;;;5135503;27;19929;-76
2022/08/10 11:42:02;;;;;;;;;;;24.00;99.90;;;;;;5116423;27;20029;-76
2022/08/10 11:44:30;;;;;;;;;;;24.00;99.90;;;;;;5116533;27;19923;-84
2022/08/10 11:47:00;;;;;;;;;;;24.00;99.90;;;;;;5116679;27;19924;-82
2022/08/10 11:49:55;;;;;;;;;;;24.00;99.90;;;;;;5116223;27;19923;-75
2022/08/10 11:52:39;;;;;;;;;;;24.10;99.90;;;;;;5071617;28;19931;-76
2022/08/10 11:55:18;;;;;;;;;;;24.10;99.90;;;;;;5071455;28;19970;-77
2022/08/10 11:57:45;;;;;;;;;;;24.20;99.90;;;;;;5071524;28;19928;-75
2022/08/10 12:00:11;;;;;;;;;;;24.20;99.90;;;;;;5054893;28;20338;-76
2022/08/10 12:02:40;;;;;;;;;;;24.20;99.90;;;;;;5054581;28;19978;-74
2022/08/10 12:05:20;;;;;;;;;;;24.20;99.90;;;;;;5055045;28;20379;-75
2022/08/10 12:07:47;;;;;;;;;;;24.30;99.90;;;;;;5054746;28;20322;-76
2022/08/10 12:10:14;;;;;;;;;;;24.30;99.90;;;;;;5071306;28;19924;-76
2022/08/10 12:13:01;;;;;;;;;;;24.30;99.90;;;;;;5071284;28;20019;-75
2022/08/10 12:15:32;;;;;;;;;;;24.30;99.90;;;;;;5071349;28;19958;-77
2022/08/10 12:18:02;;;;;;;;;;;24.30;99.90;;;;;;5071456;28;19932;-77
2022/08/10 12:20:30;;;;;;;;;;;24.30;99.90;;;;;;5071301;28;20294;-76
2022/08/10 12:23:00;;;;;;;;;;;24.30;99.90;;;;;;5071088;28;19925;-77
2022/08/10 12:25:37;;;;;;;;;;;24.30;99.90;;;;;;5054700;28;19924;-77
2022/08/10 12:28:09;;;;;;;;;;;24.30;99.90;;;;;;5051399;28;20438;-76
2022/08/10 12:30:37;;;;;;;;;;;24.40;99.90;;;;;;5134550;28;20374;-76
2022/08/10 12:33:06;;;;;;;;;;;24.40;99.90;;;;;;5134448;28;19981;-73
2022/08/10 12:35:37;;;;;;;;;;;24.30;99.90;;;;;;5134148;28;19978;-76
2022/08/10 12:38:13;;;;;;;;;;;24.50;99.90;;;;;;5134460;28;19971;-76
2022/08/10 12:40:44;;;;;;;;;;;24.50;99.90;;;;;;5134152;28;20445;-77
2022/08/10 12:43:17;;;;;;;;;;;24.50;99.90;;;;;;5116251;28;20014;-78
2022/08/10 12:46:03;;;;;;;;;;;24.50;99.90;;;;;;5115792;28;19927;-77
2022/08/10 12:48:32;;;;;;;;;;;24.50;99.90;;;;;;5054230;28;20015;-79
2022/08/10 12:51:00;;;;;;;;;;;24.50;99.90;;;;;;5071010;28;20426;-79
2022/08/10 12:53:45;;;;;;;;;;;24.50;99.90;;;;;;5073499;28;19931;-76
2022/08/10 12:56:17;;;;;;;;;;;24.50;99.90;;;;;;5074837;28;19948;-77
2022/08/10 12:58:43;;;;;;;;;;;24.50;99.90;;;;;;5074680;28;20478;-77
2022/08/10 13:01:10;;;;;;;;;;;24.60;99.90;;;;;;5041546;28;20019;-79
2022/08/10 13:03:37;;;;;;;;;;;24.60;99.90;;;;;;5074828;28;19982;-76
2022/08/10 13:06:04;;;;;;;;;;;24.10;99.90;;;;;;5074740;28;20018;-78
2022/08/10 13:11:17;;;;;;;;;;;24.60;98.00;;;;;;5074483;28;19982;-76
2022/08/10 13:13:44;;;;;;;;;;;24.70;92.90;;;;;;5075211;28;19931;-77
2022/08/10 13:16:10;;;;;;;;;;;24.70;99.90;;;;;;5074517;28;19971;-76
2022/08/10 13:18:41;;;;;;;;;;;24.70;99.90;;;;;;5074431;28;19978;-79
2022/08/10 13:21:11;;;;;;;;;;;24.70;99.90;;;;;;5074373;28;19924;-79
2022/08/10 13:23:40;;;;;;;;;;;24.70;99.30;;;;;;5063908;28;19943;-78
2022/08/10 13:26:07;;;;;;;;;;;24.80;99.90;;;;;;5125408;27;19927;-78
2022/08/10 13:28:36;;;;;;;;;;;24.80;99.90;;;;;;5119154;27;19923;-79
2022/08/10 13:31:04;;;;;;;;;;;24.80;99.90;;;;;;5153732;27;20301;-78
2022/08/10 13:33:33;;;;;;;;;;;24.80;99.90;;;;;;5119189;27;19927;-79
2022/08/10 13:36:00;;;;;;;;;;;24.80;99.60;;;;;;5137417;27;19923;-77
2022/08/10 13:38:26;;;;;;;;;;;24.80;99.90;;;;;;5137415;27;20313;-79
2022/08/10 13:40:52;;;;;;;;;;;24.90;99.90;;;;;;5137507;27;19930;-75
2022/08/10 13:43:18;;;;;;;;;;;24.90;99.90;;;;;;5137226;27;20017;-78
2022/08/10 13:45:44;;;;;;;;;;;24.90;99.90;;;;;;5137443;27;19949;-78
2022/08/10 13:48:13;;;;;;;;;;;24.90;98.30;;;;;;5137367;27;20303;-80
2022/08/10 13:50:39;;;;;;;;;;;24.90;99.90;;;;;;5153333;27;19924;-81
2022/08/10 13:53:07;;;;;;;;;;;25.00;99.90;;;;;;5137212;27;19923;-79
2022/08/10 13:55:33;;;;;;;;;;;25.00;99.90;;;;;;5153318;27;19923;-77
2022/08/10 13:58:02;;;;;;;;;;;25.00;98.80;;;;;;5137031;27;19930;-78
2022/08/10 14:00:32;;;;;;;;;;;25.00;99.90;;;;;;5137144;27;19923;-77
2022/08/10 14:03:09;;;;;;;;;;;25.00;99.90;;;;;;5136556;27;19966;-80
2022/08/10 14:05:36;;;;;;;;;;;25.10;99.90;;;;;;5118874;27;19930;-78
2022/08/10 14:08:04;;;;;;;;;;;25.10;99.80;;;;;;5136940;27;19923;-77
2022/08/10 14:10:38;;;;;;;;;;;25.10;98.50;;;;;;5136906;27;19924;-77
2022/08/10 14:13:05;;;;;;;;;;;25.10;99.90;;;;;;5136702;27;20374;-79
2022/08/10 14:15:32;;;;;;;;;;;25.10;99.10;;;;;;5118777;27;19924;-77
2022/08/10 14:17:58;;;;;;;;;;;25.10;95.00;;;;;;5136688;27;19924;-77
2022/08/10 14:20:28;;;;;;;;;;;25.20;97.90;;;;;;5136665;27;19927;-78
2022/08/10 14:23:19;;;;;;;;;;;25.20;92.00;;;;;;5136452;27;19927;-80
2022/08/10 14:25:47;;;;;;;;;;;25.20;98.90;;;;;;5134285;27;19947;-78
2022/08/10 14:28:14;;;;;;;;;;;25.20;94.80;;;;;;5136460;27;20329;-80
2022/08/10 14:30:40;;;;;;;;;;;25.20;97.30;;;;;;5136439;27;19924;-79
2022/08/10 14:33:07;;;;;;;;;;;25.20;95.60;;;;;;5136313;27;20301;-78
2022/08/10 14:35:34;;;;;;;;;;;25.20;90.20;;;;;;5136349;27;20014;-77
2022/08/10 14:38:10;;;;;;;;;;;25.20;99.90;;;;;;5152351;27;19923;-78